Time;durP1;ratioP1;P1;durP2;ratioP2;P2;SDS_P1;SDS_P2;PMS_P1;PMS_P2;Temp;Humidity;BMP_temperature;BMP_pressure;BME280_temperature;BME280_humidity;BME280_pressure;Samples;Min_cycle;Max_cycle;Signal;HPM_P1;HPM_P2
2023/08/13 00:02:02;;;;;;;1.58;1.58;;;;;;;;;;5080357;28;20206;-62
2023/08/13 00:04:29;;;;;;;1.73;1.60;;;;;;;;;;5088066;28;20199;-62
2023/08/13 00:06:56;;;;;;;1.48;1.48;;;;;;;;;;5088990;28;20661;-62
2023/08/13 00:09:23;;;;;;;1.80;1.38;;;;;;;;;;5088301;28;20221;-61
2023/08/13 00:11:50;;;;;;;1.98;1.80;;;;;;;;;;5088406;28;20210;-61
2023/08/13 00:14:17;;;;;;;1.50;1.50;;;;;;;;;;5087459;28;20862;-62
2023/08/13 00:16:47;;;;;;;1.30;1.30;;;;;;;;;;5088415;28;20198;-61
2023/08/13 00:19:14;;;;;;;1.73;1.67;;;;;;;;;;5088264;28;20208;-62
2023/08/13 00:21:41;;;;;;;1.38;1.38;;;;;;;;;;5088491;28;20450;-62
2023/08/13 00:24:08;;;;;;;1.60;1.60;;;;;;;;;;5088234;28;20206;-61
2023/08/13 00:26:37;;;;;;;1.35;1.35;;;;;;;;;;5088282;28;20206;-61
2023/08/13 00:29:04;;;;;;;1.10;1.08;;;;;;;;;;5088209;28;20593;-62
2023/08/13 00:31:32;;;;;;;1.35;1.35;;;;;;;;;;5087806;28;20340;-61
2023/08/13 00:34:00;;;;;;;4.68;1.27;;;;;;;;;;5073980;28;20254;-62
2023/08/13 00:36:27;;;;;;;3.50;1.63;;;;;;;;;;5088177;28;20202;-62
2023/08/13 00:38:54;;;;;;;2.92;1.50;;;;;;;;;;5088073;28;20213;-61
2023/08/13 00:41:21;;;;;;;1.30;1.30;;;;;;;;;;5087736;28;20210;-62
2023/08/13 00:43:49;;;;;;;1.48;1.48;;;;;;;;;;5087938;28;20596;-61
2023/08/13 00:46:16;;;;;;;1.20;1.20;;;;;;;;;;5087481;28;20283;-61
2023/08/13 00:48:44;;;;;;;1.80;1.42;;;;;;;;;;5087824;28;20577;-61
2023/08/13 00:51:14;;;;;;;1.30;1.20;;;;;;;;;;5088089;28;20240;-62
2023/08/13 00:53:46;;;;;;;1.27;1.17;;;;;;;;;;5088367;28;21091;-61
2023/08/13 00:56:14;;;;;;;1.25;1.25;;;;;;;;;;5087744;28;20222;-62
2023/08/13 00:58:42;;;;;;;1.33;1.33;;;;;;;;;;5085604;28;20206;-61
2023/08/13 01:01:09;;;;;;;1.05;1.05;;;;;;;;;;5085778;28;20206;-61
2023/08/13 01:03:37;;;;;;;1.10;1.10;;;;;;;;;;5085675;28;20297;-61
2023/08/13 01:06:08;;;;;;;1.48;1.20;;;;;;;;;;5085893;28;20202;-62
2023/08/13 01:08:40;;;;;;;5.05;1.33;;;;;;;;;;5086301;28;20202;-61
2023/08/13 01:11:11;;;;;;;0.98;0.98;;;;;;;;;;5079531;28;20237;-61
2023/08/13 01:13:40;;;;;;;1.42;1.33;;;;;;;;;;5079132;28;20198;-62
2023/08/13 01:16:08;;;;;;;2.75;1.20;;;;;;;;;;5087447;28;20222;-61
2023/08/13 01:18:36;;;;;;;1.35;1.30;;;;;;;;;;5087438;28;20211;-61
2023/08/13 01:21:04;;;;;;;1.15;1.15;;;;;;;;;;5087748;28;20210;-61
2023/08/13 01:23:32;;;;;;;3.58;1.40;;;;;;;;;;5087468;28;20207;-61
2023/08/13 01:26:03;;;;;;;1.10;1.10;;;;;;;;;;5089705;28;20205;-61
2023/08/13 01:28:32;;;;;;;2.25;1.17;;;;;;;;;;5091006;28;20207;-61
2023/08/13 01:30:59;;;;;;;1.40;1.35;;;;;;;;;;5091771;28;20221;-61
2023/08/13 01:33:29;;;;;;;1.25;1.00;;;;;;;;;;5091421;28;20229;-61
2023/08/13 01:35:58;;;;;;;1.70;1.10;;;;;;;;;;5091030;28;20222;-61
2023/08/13 01:38:25;;;;;;;1.50;1.05;;;;;;;;;;5091276;28;20206;-61
2023/08/13 01:40:53;;;;;;;1.00;1.00;;;;;;;;;;5091104;28;21106;-61
2023/08/13 01:43:20;;;;;;;1.27;1.27;;;;;;;;;;5091175;28;20249;-61
2023/08/13 01:45:47;;;;;;;1.30;1.27;;;;;;;;;;5091405;28;20198;-61
2023/08/13 01:48:14;;;;;;;0.90;0.90;;;;;;;;;;5090963;28;20203;-61
2023/08/13 01:50:42;;;;;;;2.25;1.17;;;;;;;;;;5091381;28;20587;-61
2023/08/13 01:53:09;;;;;;;1.05;1.05;;;;;;;;;;5091176;28;20738;-62
2023/08/13 01:55:36;;;;;;;1.10;1.00;;;;;;;;;;5090984;28;20230;-61
2023/08/13 01:58:04;;;;;;;1.60;1.20;;;;;;;;;;5090330;28;20585;-61
2023/08/13 02:00:31;;;;;;;1.20;1.20;;;;;;;;;;5091087;28;20202;-61
2023/08/13 02:02:58;;;;;;;1.25;1.25;;;;;;;;;;5091177;28;20286;-62
2023/08/13 02:05:25;;;;;;;1.02;1.02;;;;;;;;;;5090982;28;20206;-61
2023/08/13 02:07:53;;;;;;;3.20;1.17;;;;;;;;;;5090939;28;20214;-62
2023/08/13 02:10:20;;;;;;;1.00;1.00;;;;;;;;;;5090728;28;20218;-61
2023/08/13 02:12:47;;;;;;;1.50;1.40;;;;;;;;;;5090758;28;20198;-61
2023/08/13 02:15:15;;;;;;;1.05;1.05;;;;;;;;;;5090860;28;20316;-61
2023/08/13 02:17:42;;;;;;;1.50;1.30;;;;;;;;;;5090699;28;20229;-61
2023/08/13 02:20:10;;;;;;;1.73;1.10;;;;;;;;;;5090196;28;20225;-61
2023/08/13 02:22:37;;;;;;;0.93;0.93;;;;;;;;;;5090675;28;20206;-61
2023/08/13 02:25:04;;;;;;;1.73;0.80;;;;;;;;;;5090595;28;20191;-62
2023/08/13 02:27:31;;;;;;;1.13;1.13;;;;;;;;;;5090307;28;20202;-61
2023/08/13 02:29:58;;;;;;;1.00;1.00;;;;;;;;;;5089971;28;20215;-62
2023/08/13 02:32:27;;;;;;;1.00;1.00;;;;;;;;;;5090686;28;20238;-61
2023/08/13 02:34:54;;;;;;;0.98;0.98;;;;;;;;;;5090132;28;20229;-61
2023/08/13 02:37:22;;;;;;;2.72;0.90;;;;;;;;;;5089281;28;20194;-61
2023/08/13 02:39:49;;;;;;;3.22;0.90;;;;;;;;;;5090628;28;20194;-61
2023/08/13 02:42:16;;;;;;;1.00;1.00;;;;;;;;;;5089880;28;20273;-61
2023/08/13 02:44:43;;;;;;;0.88;0.88;;;;;;;;;;5090240;28;20223;-61
2023/08/13 02:47:10;;;;;;;0.90;0.90;;;;;;;;;;5090147;28;20566;-62
2023/08/13 02:49:38;;;;;;;1.20;1.10;;;;;;;;;;5089744;28;20194;-61
2023/08/13 02:52:06;;;;;;;1.15;1.10;;;;;;;;;;5089929;28;20206;-61
2023/08/13 02:54:33;;;;;;;1.20;1.10;;;;;;;;;;5090203;28;20260;-61
2023/08/13 02:57:00;;;;;;;2.13;1.20;;;;;;;;;;5089939;28;20214;-61
2023/08/13 02:59:27;;;;;;;5.18;1.20;;;;;;;;;;5089633;28;20553;-61
2023/08/13 03:01:54;;;;;;;1.33;1.15;;;;;;;;;;5090005;28;20308;-61
2023/08/13 03:04:21;;;;;;;5.30;1.20;;;;;;;;;;5089723;28;20202;-61
2023/08/13 03:06:49;;;;;;;0.63;0.63;;;;;;;;;;5089611;28;20195;-61
2023/08/13 03:09:20;;;;;;;1.15;1.15;;;;;;;;;;5089993;28;20202;-61
2023/08/13 03:11:47;;;;;;;1.27;1.17;;;;;;;;;;5089444;28;20271;-61
2023/08/13 03:14:14;;;;;;;2.05;1.00;;;;;;;;;;5089304;28;20687;-61
2023/08/13 03:16:42;;;;;;;1.08;1.08;;;;;;;;;;5089782;28;20221;-61
2023/08/13 03:19:09;;;;;;;2.38;0.90;;;;;;;;;;5089305;28;20641;-61
2023/08/13 03:21:36;;;;;;;1.30;1.23;;;;;;;;;;5089459;28;20218;-61
2023/08/13 03:24:04;;;;;;;1.20;1.20;;;;;;;;;;5089419;28;20309;-61
2023/08/13 03:26:32;;;;;;;1.17;1.17;;;;;;;;;;5089272;28;20197;-61
2023/08/13 03:28:59;;;;;;;0.90;0.90;;;;;;;;;;5089197;28;20233;-62
2023/08/13 03:31:26;;;;;;;2.25;1.02;;;;;;;;;;5089185;28;20217;-60
2023/08/13 03:33:53;;;;;;;1.10;1.10;;;;;;;;;;5088778;28;20222;-61
2023/08/13 03:36:20;;;;;;;1.20;1.20;;;;;;;;;;5089262;28;20257;-62
2023/08/13 03:38:47;;;;;;;5.50;1.10;;;;;;;;;;5089000;28;20206;-61
2023/08/13 03:41:15;;;;;;;0.98;0.98;;;;;;;;;;5087955;28;20225;-61
2023/08/13 03:43:42;;;;;;;1.17;1.15;;;;;;;;;;5088429;28;20230;-61
2023/08/13 03:46:09;;;;;;;1.10;1.10;;;;;;;;;;5089265;28;20949;-61
2023/08/13 03:48:36;;;;;;;1.60;1.45;;;;;;;;;;5088903;28;20214;-61
2023/08/13 03:51:04;;;;;;;1.60;1.60;;;;;;;;;;5089025;28;20210;-61
2023/08/13 03:53:31;;;;;;;1.45;1.45;;;;;;;;;;5088938;28;20259;-61
2023/08/13 03:55:58;;;;;;;1.45;1.45;;;;;;;;;;5087556;28;20230;-61
2023/08/13 03:58:26;;;;;;;1.10;1.10;;;;;;;;;;5088796;28;20218;-61
2023/08/13 04:00:53;;;;;;;2.88;1.00;;;;;;;;;;5088968;28;20210;-61
2023/08/13 04:03:20;;;;;;;2.05;1.08;;;;;;;;;;5088562;28;20209;-61
2023/08/13 04:05:47;;;;;;;0.88;0.88;;;;;;;;;;5088406;28;20325;-61
2023/08/13 04:08:15;;;;;;;1.05;1.05;;;;;;;;;;5088700;28;20210;-61
2023/08/13 04:10:42;;;;;;;1.10;1.10;;;;;;;;;;5088190;28;20198;-61
2023/08/13 04:13:09;;;;;;;1.85;1.20;;;;;;;;;;5088502;28;20203;-61
2023/08/13 04:15:37;;;;;;;4.00;1.27;;;;;;;;;;5088026;28;20817;-61
2023/08/13 04:18:04;;;;;;;1.08;1.08;;;;;;;;;;5088423;28;20673;-61
2023/08/13 04:20:31;;;;;;;1.25;1.00;;;;;;;;;;5088533;28;20213;-61
2023/08/13 04:22:58;;;;;;;1.42;1.42;;;;;;;;;;5088075;28;20209;-61
2023/08/13 04:25:26;;;;;;;1.40;1.15;;;;;;;;;;5085444;28;20209;-61
2023/08/13 04:27:53;;;;;;;1.30;1.17;;;;;;;;;;5086325;28;20355;-61
2023/08/13 04:30:20;;;;;;;1.15;1.15;;;;;;;;;;5087847;28;20469;-61
2023/08/13 04:32:54;;;;;;;1.10;1.10;;;;;;;;;;5087523;28;20241;-61
2023/08/13 04:35:21;;;;;;;1.20;1.20;;;;;;;;;;5087993;28;20221;-61
2023/08/13 04:37:48;;;;;;;1.25;1.02;;;;;;;;;;5088090;28;20209;-61
2023/08/13 04:40:15;;;;;;;2.00;1.25;;;;;;;;;;5088380;28;20217;-61
2023/08/13 04:42:43;;;;;;;1.10;1.10;;;;;;;;;;5087911;28;20213;-61
2023/08/13 04:45:12;;;;;;;1.17;1.17;;;;;;;;;;5088060;28;20213;-61
2023/08/13 04:47:39;;;;;;;1.08;1.08;;;;;;;;;;5087755;28;20202;-61
2023/08/13 04:50:08;;;;;;;1.85;1.75;;;;;;;;;;5087741;28;20198;-61
2023/08/13 04:52:35;;;;;;;1.00;1.00;;;;;;;;;;5087925;28;20225;-61
2023/08/13 04:55:02;;;;;;;1.27;1.10;;;;;;;;;;5088189;28;20198;-61
2023/08/13 04:57:29;;;;;;;1.02;1.02;;;;;;;;;;5087562;28;20219;-61
2023/08/13 04:59:56;;;;;;;1.00;1.00;;;;;;;;;;5085852;28;20213;-61
2023/08/13 05:02:23;;;;;;;1.00;1.00;;;;;;;;;;5088335;28;20202;-61
2023/08/13 05:04:51;;;;;;;1.20;1.20;;;;;;;;;;5088002;28;20240;-61
2023/08/13 05:07:19;;;;;;;1.83;1.23;;;;;;;;;;5087777;28;20194;-61
2023/08/13 05:09:46;;;;;;;1.10;1.10;;;;;;;;;;5088393;28;20602;-61
2023/08/13 05:12:13;;;;;;;1.20;1.10;;;;;;;;;;5079933;28;20202;-61
2023/08/13 05:14:40;;;;;;;1.05;1.05;;;;;;;;;;5069187;28;20219;-61
2023/08/13 05:17:17;;;;;;;2.50;1.40;;;;;;;;;;5087836;28;20225;-61
2023/08/13 05:19:44;;;;;;;1.55;1.35;;;;;;;;;;5088072;28;20318;-61
2023/08/13 05:22:11;;;;;;;1.15;1.00;;;;;;;;;;5087656;28;20198;-61
2023/08/13 05:24:40;;;;;;;1.77;1.67;;;;;;;;;;5087844;28;20206;-60
2023/08/13 05:27:07;;;;;;;1.25;1.00;;;;;;;;;;5087310;28;20199;-60
2023/08/13 05:29:34;;;;;;;3.55;1.17;;;;;;;;;;5087393;28;20669;-60
2023/08/13 05:32:02;;;;;;;1.17;1.17;;;;;;;;;;5077374;28;20229;-60
2023/08/13 05:34:29;;;;;;;1.45;1.40;;;;;;;;;;5087882;28;20210;-60
2023/08/13 05:36:56;;;;;;;1.13;1.13;;;;;;;;;;5087018;28;20234;-60
2023/08/13 05:39:23;;;;;;;1.55;1.45;;;;;;;;;;5087553;28;20574;-61
2023/08/13 05:41:51;;;;;;;1.80;1.00;;;;;;;;;;5087627;28;20230;-60
2023/08/13 05:44:18;;;;;;;2.17;1.33;;;;;;;;;;5082238;28;20222;-60
2023/08/13 05:46:45;;;;;;;1.13;1.13;;;;;;;;;;5070690;28;20211;-62
2023/08/13 05:49:12;;;;;;;1.23;1.13;;;;;;;;;;5068945;28;20215;-60
2023/08/13 05:51:39;;;;;;;1.30;1.20;;;;;;;;;;5086874;28;20203;-60
2023/08/13 05:54:08;;;;;;;1.52;1.42;;;;;;;;;;5087095;28;20226;-60
2023/08/13 05:56:35;;;;;;;1.20;1.20;;;;;;;;;;5087280;28;20292;-60
2023/08/13 05:59:04;;;;;;;2.25;1.35;;;;;;;;;;5087324;28;20210;-60
2023/08/13 06:01:31;;;;;;;1.38;1.38;;;;;;;;;;5086829;28;20534;-60
2023/08/13 06:03:58;;;;;;;0.90;0.90;;;;;;;;;;5087439;28;20218;-61
2023/08/13 06:06:25;;;;;;;1.58;1.48;;;;;;;;;;5086952;28;20210;-60
2023/08/13 06:08:52;;;;;;;1.73;1.63;;;;;;;;;;5086913;28;20625;-60
2023/08/13 06:11:19;;;;;;;1.15;1.08;;;;;;;;;;5083042;28;20738;-60
2023/08/13 06:13:46;;;;;;;1.30;1.30;;;;;;;;;;5090282;28;20209;-61
2023/08/13 06:16:15;;;;;;;1.20;1.20;;;;;;;;;;5090483;28;20229;-60
2023/08/13 06:18:42;;;;;;;1.25;1.25;;;;;;;;;;5090914;28;20230;-61
2023/08/13 06:21:09;;;;;;;1.00;1.00;;;;;;;;;;5090089;28;20198;-61
2023/08/13 06:23:36;;;;;;;1.30;1.30;;;;;;;;;;5090470;28;20203;-61
2023/08/13 06:26:03;;;;;;;1.27;1.27;;;;;;;;;;5090932;28;20688;-61
2023/08/13 06:28:30;;;;;;;0.82;0.82;;;;;;;;;;5090027;28;20202;-61
2023/08/13 06:30:57;;;;;;;1.10;1.10;;;;;;;;;;5089980;28;20206;-60
2023/08/13 06:33:26;;;;;;;1.58;1.48;;;;;;;;;;5090255;28;20227;-60
2023/08/13 06:35:53;;;;;;;1.10;1.10;;;;;;;;;;5090179;28;20198;-60
2023/08/13 06:38:20;;;;;;;1.45;1.45;;;;;;;;;;5089875;28;20205;-61
2023/08/13 06:40:47;;;;;;;1.13;1.13;;;;;;;;;;5090450;28;20206;-61
2023/08/13 06:43:16;;;;;;;1.10;1.10;;;;;;;;;;5089751;28;20218;-61
2023/08/13 06:45:43;;;;;;;1.10;1.10;;;;;;;;;;5089763;28;20931;-61
2023/08/13 06:48:10;;;;;;;1.17;1.17;;;;;;;;;;5090104;28;20214;-61
2023/08/13 06:50:38;;;;;;;1.00;1.00;;;;;;;;;;5089486;28;20252;-61
2023/08/13 06:53:05;;;;;;;1.20;1.20;;;;;;;;;;5089635;28;20217;-61
2023/08/13 06:55:32;;;;;;;1.13;1.13;;;;;;;;;;5090512;28;20202;-61
2023/08/13 06:58:00;;;;;;;1.20;1.20;;;;;;;;;;5089646;28;20249;-61
2023/08/13 07:00:27;;;;;;;1.05;1.05;;;;;;;;;;5089664;28;20206;-61
2023/08/13 07:02:54;;;;;;;1.30;1.30;;;;;;;;;;5089880;28;20198;-61
2023/08/13 07:05:21;;;;;;;0.98;0.98;;;;;;;;;;5089724;28;20210;-61
2023/08/13 07:07:50;;;;;;;1.20;1.20;;;;;;;;;;5089673;28;20191;-61
2023/08/13 07:10:17;;;;;;;1.30;1.30;;;;;;;;;;5089828;28;20206;-61
2023/08/13 07:12:44;;;;;;;1.10;1.10;;;;;;;;;;5089638;28;20198;-61
2023/08/13 07:15:11;;;;;;;1.17;1.17;;;;;;;;;;5089274;28;20206;-61
2023/08/13 07:17:38;;;;;;;1.25;1.25;;;;;;;;;;5089653;28;20250;-61
2023/08/13 07:20:09;;;;;;;1.13;1.13;;;;;;;;;;5089238;28;20209;-61
2023/08/13 07:22:37;;;;;;;1.52;1.20;;;;;;;;;;5084838;28;20198;-62
2023/08/13 07:25:06;;;;;;;1.17;1.17;;;;;;;;;;5089410;28;20202;-62
2023/08/13 07:27:33;;;;;;;1.60;1.60;;;;;;;;;;5089466;28;20194;-61
2023/08/13 07:30:00;;;;;;;1.30;1.30;;;;;;;;;;5088906;28;20206;-62
2023/08/13 07:32:28;;;;;;;1.60;1.60;;;;;;;;;;5076667;28;20681;-62
2023/08/13 07:34:55;;;;;;;1.70;1.70;;;;;;;;;;5089134;28;20836;-61
2023/08/13 07:37:23;;;;;;;2.55;2.45;;;;;;;;;;5088298;28;20249;-61
2023/08/13 07:39:50;;;;;;;1.20;1.20;;;;;;;;;;5087142;28;20209;-62
2023/08/13 07:42:19;;;;;;;1.20;1.20;;;;;;;;;;5086437;28;20764;-61
2023/08/13 07:44:47;;;;;;;1.10;1.10;;;;;;;;;;5087738;28;20312;-61
2023/08/13 07:47:14;;;;;;;1.20;1.20;;;;;;;;;;5088940;28;20206;-62
2023/08/13 07:49:41;;;;;;;1.05;1.05;;;;;;;;;;5073915;28;20213;-62
2023/08/13 07:52:08;;;;;;;1.33;1.33;;;;;;;;;;5068992;28;20203;-62
2023/08/13 07:54:36;;;;;;;1.33;1.33;;;;;;;;;;5068784;28;20210;-62
2023/08/13 07:57:03;;;;;;;1.30;1.30;;;;;;;;;;5068878;28;20226;-62
2023/08/13 07:59:32;;;;;;;1.40;1.40;;;;;;;;;;5068548;28;20203;-62
2023/08/13 08:02:02;;;;;;;1.10;1.10;;;;;;;;;;5088758;28;20206;-62
2023/08/13 08:04:29;;;;;;;2.75;1.15;;;;;;;;;;5089014;28;20233;-62
2023/08/13 08:06:57;;;;;;;2.05;1.30;;;;;;;;;;5089035;28;20725;-62
2023/08/13 08:09:24;;;;;;;1.20;1.20;;;;;;;;;;5088534;28;20218;-62
2023/08/13 08:11:51;;;;;;;1.30;1.20;;;;;;;;;;5088705;28;20598;-63
2023/08/13 08:14:18;;;;;;;1.27;1.20;;;;;;;;;;5088527;28;20293;-62
2023/08/13 08:16:46;;;;;;;1.73;1.30;;;;;;;;;;5088396;28;20230;-62
2023/08/13 08:19:14;;;;;;;1.40;1.40;;;;;;;;;;5088530;28;20205;-62
2023/08/13 08:21:41;;;;;;;2.05;1.17;;;;;;;;;;5088937;28;20531;-62
2023/08/13 08:24:08;;;;;;;1.40;1.40;;;;;;;;;;5088127;28;20548;-64
2023/08/13 08:26:35;;;;;;;1.20;1.20;;;;;;;;;;5088401;28;20222;-63
2023/08/13 08:29:02;;;;;;;1.10;1.10;;;;;;;;;;5088914;28;20215;-63
2023/08/13 08:31:29;;;;;;;1.35;1.35;;;;;;;;;;5088152;28;20211;-63
2023/08/13 08:33:57;;;;;;;1.58;1.30;;;;;;;;;;5087669;28;20213;-63
2023/08/13 08:36:25;;;;;;;0.93;0.93;;;;;;;;;;5086438;28;20207;-63
2023/08/13 08:38:52;;;;;;;1.10;1.10;;;;;;;;;;5088111;28;20274;-63
2023/08/13 08:41:20;;;;;;;1.30;1.23;;;;;;;;;;5088458;28;20568;-61
2023/08/13 08:43:47;;;;;;;1.30;1.23;;;;;;;;;;5083530;28;20223;-64
2023/08/13 08:46:15;;;;;;;1.23;1.23;;;;;;;;;;5068003;28;20214;-65
2023/08/13 08:48:43;;;;;;;1.17;1.17;;;;;;;;;;5074555;28;20198;-63
2023/08/13 08:51:12;;;;;;;1.23;1.23;;;;;;;;;;5088714;28;20234;-65
2023/08/13 08:53:41;;;;;;;1.35;1.33;;;;;;;;;;5088233;28;20664;-63
2023/08/13 08:56:08;;;;;;;1.05;1.05;;;;;;;;;;5083127;28;20199;-62
2023/08/13 08:58:35;;;;;;;1.08;1.08;;;;;;;;;;5066381;28;20238;-65
2023/08/13 09:01:02;;;;;;;1.15;1.15;;;;;;;;;;5078267;28;20220;-66
2023/08/13 09:03:29;;;;;;;1.02;1.02;;;;;;;;;;5086093;28;20218;-66
2023/08/13 09:05:56;;;;;;;1.27;1.27;;;;;;;;;;5088126;28;20214;-66
2023/08/13 09:08:25;;;;;;;1.08;1.08;;;;;;;;;;5079763;28;20670;-66
2023/08/13 09:10:52;;;;;;;1.15;1.15;;;;;;;;;;5075014;28;20285;-66
2023/08/13 09:13:19;;;;;;;3.95;1.27;;;;;;;;;;5087787;28;20206;-66
2023/08/13 09:15:49;;;;;;;1.23;1.17;;;;;;;;;;5081665;28;20199;-66
2023/08/13 09:18:16;;;;;;;1.33;1.20;;;;;;;;;;5073985;28;20246;-66
2023/08/13 09:20:44;;;;;;;1.20;1.13;;;;;;;;;;5067692;28;20270;-66
2023/08/13 09:23:11;;;;;;;1.80;1.10;;;;;;;;;;5067898;28;20241;-66
2023/08/13 09:25:39;;;;;;;1.00;1.00;;;;;;;;;;5070785;28;20679;-66
2023/08/13 09:28:07;;;;;;;1.35;1.35;;;;;;;;;;5087387;28;20633;-66
2023/08/13 09:30:34;;;;;;;0.98;0.98;;;;;;;;;;5084597;28;20214;-66
2023/08/13 09:33:02;;;;;;;1.38;1.23;;;;;;;;;;5076978;28;20250;-66
2023/08/13 09:35:30;;;;;;;1.70;1.45;;;;;;;;;;5083059;28;20689;-66
2023/08/13 09:37:57;;;;;;;1.00;0.90;;;;;;;;;;5087451;28;20221;-66
2023/08/13 09:40:24;;;;;;;1.50;0.95;;;;;;;;;;5077917;28;20207;-66
2023/08/13 09:42:54;;;;;;;1.27;1.20;;;;;;;;;;5087191;28;20207;-65
2023/08/13 09:45:21;;;;;;;0.93;0.93;;;;;;;;;;5087775;28;20203;-65
2023/08/13 09:47:50;;;;;;;1.25;1.25;;;;;;;;;;5090760;28;20684;-65
2023/08/13 09:50:18;;;;;;;1.98;1.15;;;;;;;;;;5090526;28;20198;-66
2023/08/13 09:52:48;;;;;;;1.00;1.00;;;;;;;;;;5091488;28;20210;-65
2023/08/13 09:55:15;;;;;;;1.20;1.20;;;;;;;;;;5091524;28;20206;-66
2023/08/13 09:57:45;;;;;;;1.00;1.00;;;;;;;;;;5090557;28;20233;-66
2023/08/13 10:00:14;;;;;;;1.42;1.42;;;;;;;;;;5090711;28;20210;-66
2023/08/13 10:02:41;;;;;;;3.90;1.20;;;;;;;;;;5091039;28;20213;-66
2023/08/13 10:05:09;;;;;;;1.02;0.95;;;;;;;;;;5090839;28;20213;-66
2023/08/13 10:07:37;;;;;;;1.15;1.10;;;;;;;;;;5089332;28;20347;-64
2023/08/13 10:10:04;;;;;;;1.17;1.10;;;;;;;;;;5086810;28;20229;-66
2023/08/13 10:12:31;;;;;;;1.95;1.33;;;;;;;;;;5090708;28;20317;-65
2023/08/13 10:14:58;;;;;;;1.30;1.30;;;;;;;;;;5090414;28;20210;-65
2023/08/13 10:17:28;;;;;;;1.42;1.38;;;;;;;;;;5090760;28;20229;-66
2023/08/13 10:19:56;;;;;;;1.95;1.38;;;;;;;;;;5089765;28;20214;-66
2023/08/13 10:22:32;;;;;;;1.10;1.10;;;;;;;;;;5090713;28;20233;-66
2023/08/13 10:25:00;;;;;;;1.08;1.08;;;;;;;;;;5087581;28;20222;-68
2023/08/13 10:27:27;;;;;;;1.13;1.13;;;;;;;;;;5085993;28;20209;-65
2023/08/13 10:30:05;;;;;;;1.23;1.20;;;;;;;;;;5086354;28;20206;-65
2023/08/13 10:32:34;;;;;;;1.30;1.30;;;;;;;;;;5090511;28;20707;-66
2023/08/13 10:35:01;;;;;;;1.25;1.25;;;;;;;;;;5090533;28;20213;-66
2023/08/13 10:37:32;;;;;;;1.30;1.27;;;;;;;;;;5090367;28;20230;-65
2023/08/13 10:40:08;;;;;;;1.52;1.52;;;;;;;;;;5090527;28;20206;-66
2023/08/13 10:42:51;;;;;;;1.42;1.17;;;;;;;;;;5090543;28;20255;-65
2023/08/13 10:45:19;;;;;;;1.25;1.25;;;;;;;;;;5080079;28;20207;-63
2023/08/13 10:47:48;;;;;;;1.40;1.35;;;;;;;;;;5070059;28;20218;-64
2023/08/13 10:50:27;;;;;;;1.35;1.35;;;;;;;;;;5070139;28;20677;-64
2023/08/13 10:52:54;;;;;;;1.67;1.30;;;;;;;;;;5070166;28;20207;-64
2023/08/13 10:55:23;;;;;;;99.07;20.52;;;;;;;;;;5069988;28;20222;-63
2023/08/13 10:57:51;;;;;;;14.02;3.97;;;;;;;;;;5074338;28;20218;-65
2023/08/13 11:00:19;;;;;;;358.63;80.60;;;;;;;;;;5089580;28;20213;-64
2023/08/13 11:02:51;;;;;;;9.30;4.88;;;;;;;;;;5090123;28;20230;-62
2023/08/13 11:05:18;;;;;;;15.65;5.95;;;;;;;;;;5089115;28;20214;-62
2023/08/13 11:07:45;;;;;;;169.50;31.80;;;;;;;;;;5089755;28;20202;-65
2023/08/13 11:10:16;;;;;;;57.50;12.90;;;;;;;;;;5089866;28;20973;-64
2023/08/13 11:12:43;;;;;;;13.30;4.13;;;;;;;;;;5090060;28;20265;-62
2023/08/13 11:15:11;;;;;;;77.50;16.60;;;;;;;;;;5089116;28;20210;-62
2023/08/13 11:17:38;;;;;;;46.45;11.35;;;;;;;;;;5089526;28;20233;-64
2023/08/13 11:20:07;;;;;;;15.52;5.40;;;;;;;;;;5089456;28;20210;-61
2023/08/13 11:22:34;;;;;;;16.85;4.57;;;;;;;;;;5089541;28;20202;-63
2023/08/13 11:25:01;;;;;;;10.00;2.47;;;;;;;;;;5089631;28;20213;-63
2023/08/13 11:27:29;;;;;;;1.10;1.02;;;;;;;;;;5089069;28;20210;-63
2023/08/13 11:29:56;;;;;;;1.40;1.20;;;;;;;;;;5088582;28;20221;-64
2023/08/13 11:32:23;;;;;;;2.63;1.10;;;;;;;;;;5086566;28;20237;-63
2023/08/13 11:34:50;;;;;;;4.03;1.20;;;;;;;;;;5083653;28;20231;-63
2023/08/13 11:37:18;;;;;;;3.88;1.17;;;;;;;;;;5068905;28;20215;-63
2023/08/13 11:39:46;;;;;;;1.13;1.02;;;;;;;;;;5086442;28;20752;-63
2023/08/13 11:42:13;;;;;;;0.80;0.80;;;;;;;;;;5076295;28;20225;-63
2023/08/13 11:44:40;;;;;;;2.50;1.17;;;;;;;;;;5068420;28;20238;-64
2023/08/13 11:47:07;;;;;;;2.63;0.75;;;;;;;;;;5088614;28;20206;-63
2023/08/13 11:49:42;;;;;;;2.03;1.00;;;;;;;;;;5088524;28;20656;-63
2023/08/13 11:52:10;;;;;;;1.63;1.10;;;;;;;;;;5088968;28;20221;-63
2023/08/13 11:54:41;;;;;;;1.27;1.02;;;;;;;;;;5088507;28;20214;-63
2023/08/13 11:57:08;;;;;;;1.60;0.82;;;;;;;;;;5088975;28;20207;-63
2023/08/13 11:59:35;;;;;;;1.75;0.77;;;;;;;;;;5088482;28;20222;-63
2023/08/13 12:02:02;;;;;;;1.48;0.80;;;;;;;;;;5088483;28;20213;-63
2023/08/13 12:04:31;;;;;;;0.73;0.70;;;;;;;;;;5088404;28;20210;-63
2023/08/13 12:06:58;;;;;;;1.58;0.68;;;;;;;;;;5088571;28;20206;-63
2023/08/13 12:09:25;;;;;;;1.00;0.65;;;;;;;;;;5087229;28;20674;-63
2023/08/13 12:11:56;;;;;;;1.33;0.90;;;;;;;;;;5077160;28;20317;-63
2023/08/13 12:14:23;;;;;;;0.70;0.70;;;;;;;;;;5082474;28;20729;-64
2023/08/13 12:16:50;;;;;;;0.70;0.70;;;;;;;;;;5086288;28;20210;-63
2023/08/13 12:19:17;;;;;;;0.80;0.75;;;;;;;;;;5069935;28;20233;-64
2023/08/13 12:21:44;;;;;;;0.82;0.82;;;;;;;;;;5073407;28;20199;-63
2023/08/13 12:24:11;;;;;;;0.80;0.80;;;;;;;;;;5088485;28;20213;-63
2023/08/13 12:26:38;;;;;;;0.68;0.60;;;;;;;;;;5088400;28;20583;-63
2023/08/13 12:29:07;;;;;;;0.65;0.65;;;;;;;;;;5088599;28;20232;-64
2023/08/13 12:31:34;;;;;;;0.80;0.80;;;;;;;;;;5087825;28;20210;-64
2023/08/13 12:34:01;;;;;;;1.00;0.68;;;;;;;;;;5088090;28;20213;-62
2023/08/13 12:36:28;;;;;;;1.67;0.77;;;;;;;;;;5088520;28;20202;-65
2023/08/13 12:38:55;;;;;;;0.80;0.80;;;;;;;;;;5088096;28;20238;-65
2023/08/13 12:41:22;;;;;;;0.70;0.70;;;;;;;;;;5087951;28;20265;-65
2023/08/13 12:43:49;;;;;;;2.17;0.88;;;;;;;;;;5088177;28;20226;-66
2023/08/13 12:46:18;;;;;;;1.40;0.88;;;;;;;;;;5088015;28;20576;-66
2023/08/13 12:48:45;;;;;;;0.85;0.80;;;;;;;;;;5088031;28;20205;-66
2023/08/13 12:51:12;;;;;;;0.75;0.60;;;;;;;;;;5088245;28;20206;-66
2023/08/13 12:53:40;;;;;;;0.57;0.57;;;;;;;;;;5087951;28;20292;-67
2023/08/13 12:56:07;;;;;;;0.60;0.60;;;;;;;;;;5087889;28;20665;-66
2023/08/13 12:58:34;;;;;;;0.70;0.70;;;;;;;;;;5088281;28;20233;-66
2023/08/13 13:01:01;;;;;;;0.60;0.60;;;;;;;;;;5087577;28;20226;-66
2023/08/13 13:03:30;;;;;;;0.68;0.65;;;;;;;;;;5073198;28;20568;-66
2023/08/13 13:05:57;;;;;;;1.38;0.60;;;;;;;;;;5067971;28;20206;-67
2023/08/13 13:08:25;;;;;;;1.05;0.60;;;;;;;;;;5067900;28;20199;-67
2023/08/13 13:10:52;;;;;;;0.98;0.90;;;;;;;;;;5067632;28;20207;-65
2023/08/13 13:13:19;;;;;;;0.90;0.90;;;;;;;;;;5079933;28;20202;-65
2023/08/13 13:15:49;;;;;;;0.60;0.60;;;;;;;;;;5086743;28;20687;-64
2023/08/13 13:18:16;;;;;;;1.75;0.73;;;;;;;;;;5087377;28;20572;-65
2023/08/13 13:20:46;;;;;;;1.05;0.60;;;;;;;;;;5087895;28;20212;-66
2023/08/13 13:23:13;;;;;;;1.58;0.82;;;;;;;;;;5092096;28;20240;-64
2023/08/13 13:25:40;;;;;;;1.35;0.75;;;;;;;;;;5091451;28;20214;-64
2023/08/13 13:28:07;;;;;;;0.60;0.60;;;;;;;;;;5091561;28;20218;-64
2023/08/13 13:30:34;;;;;;;0.70;0.70;;;;;;;;;;5091078;28;20676;-64
2023/08/13 13:33:01;;;;;;;0.82;0.82;;;;;;;;;;5090840;28;20242;-65
2023/08/13 13:35:29;;;;;;;0.60;0.60;;;;;;;;;;5090924;28;20206;-65
2023/08/13 13:37:58;;;;;;;0.82;0.82;;;;;;;;;;5091498;28;20213;-65
2023/08/13 13:40:25;;;;;;;0.63;0.63;;;;;;;;;;5085363;28;20650;-65
2023/08/13 13:42:54;;;;;;;0.80;0.80;;;;;;;;;;5070904;28;20207;-65
2023/08/13 13:45:22;;;;;;;1.33;0.73;;;;;;;;;;5071222;28;20211;-65
2023/08/13 13:47:49;;;;;;;0.75;0.75;;;;;;;;;;5070908;28;20298;-65
2023/08/13 13:50:16;;;;;;;0.65;0.65;;;;;;;;;;5070913;28;20210;-65
2023/08/13 13:52:43;;;;;;;0.80;0.80;;;;;;;;;;5077753;28;20613;-65
2023/08/13 13:55:12;;;;;;;0.60;0.60;;;;;;;;;;5091177;28;20304;-65
2023/08/13 13:57:39;;;;;;;0.98;0.90;;;;;;;;;;5091050;28;20207;-66
2023/08/13 14:00:07;;;;;;;0.65;0.65;;;;;;;;;;5091156;28;20237;-65
2023/08/13 14:02:34;;;;;;;0.70;0.70;;;;;;;;;;5090495;28;20202;-65
2023/08/13 14:05:01;;;;;;;0.70;0.70;;;;;;;;;;5089145;28;20221;-62
2023/08/13 14:07:29;;;;;;;1.25;0.85;;;;;;;;;;5088009;28;20741;-62
2023/08/13 14:09:56;;;;;;;0.98;0.98;;;;;;;;;;5080991;28;20203;-62
2023/08/13 14:12:24;;;;;;;1.95;0.70;;;;;;;;;;5070112;28;20202;-62
2023/08/13 14:14:51;;;;;;;0.82;0.82;;;;;;;;;;5090322;28;20217;-62
2023/08/13 14:17:18;;;;;;;0.50;0.50;;;;;;;;;;5090656;28;20206;-63
2023/08/13 14:19:45;;;;;;;1.40;0.60;;;;;;;;;;5089257;28;20333;-62
2023/08/13 14:22:12;;;;;;;1.15;1.02;;;;;;;;;;5090942;28;20289;-62
2023/08/13 14:24:39;;;;;;;0.70;0.70;;;;;;;;;;5088419;28;20283;-63
2023/08/13 14:27:07;;;;;;;0.80;0.80;;;;;;;;;;5090171;28;20232;-62
2023/08/13 14:29:35;;;;;;;1.58;0.70;;;;;;;;;;5089515;28;20202;-62
2023/08/13 14:32:02;;;;;;;0.98;0.90;;;;;;;;;;5088609;28;20231;-62
2023/08/13 14:34:30;;;;;;;0.60;0.60;;;;;;;;;;5089431;28;20206;-62
2023/08/13 14:36:57;;;;;;;0.82;0.70;;;;;;;;;;5090091;28;20217;-62
2023/08/13 14:39:24;;;;;;;0.82;0.82;;;;;;;;;;5089785;28;20222;-63
2023/08/13 14:41:51;;;;;;;0.73;0.60;;;;;;;;;;5089603;28;20619;-62
2023/08/13 14:44:18;;;;;;;0.95;0.70;;;;;;;;;;5090192;28;20230;-62
2023/08/13 14:46:46;;;;;;;0.70;0.70;;;;;;;;;;5089846;28;20214;-63